Ir al contenido principal

Accidente Aires Air Line en Colombia - HK-4682 - Boeing 737-73V










DEPENDIENDO LA CONEXIÓN PUEDE DEMORAR UNOS SEGUNDOS EN CARGAR















La siguiente es la lista de los heridos en el accidente del avión de Aires en la madrugada de este lunes en la ciudad de San Andres.

La Aeronáutica Civil y Aires publican el listado oficial de pasajeros, del vuelo Aires 8250 accidentado en la madrugada de hoy en el aeropuerto Gustavo Rojas Pinilla de San Andrés Islas:


Comunicado de Prensa 02 Bogotá D.C., 16 de agosto de 2010.
Aires y la Aeronáutica Civil lamentan profundamente la muerte de la señora Amar Fernández, de 73 años, quien falleció en el centro hospitalario a causa de un paro cardiaco y el incidente ocurrido en la madrugada de hoy.

A continuación Aires y la Aeronáutica Civil publican el listado oficial de pasajeros, del vuelo Aires 8250 accidentado en la madrugada de hoy en el aeropuerto Gustavo Rojas Pinilla de San Andrés Islas:



Personal de seguridad de la compañía Aires y de la Aeronáutica Civil
se dirigen al lugar de los hechos para estar al frente de la situación.


Accidente aéreo en aeropuerto de San Andrés y Providencia


La Policía Nacional se permite informar que sobre la pista de aterrizaje del Aeropuerto Gustavo Rojas Pinilla de San Andrés Islas en territorio Colombiano a la 01:49 de la madrugada se accidentó un avión Boeing 737-700 de la aerolínea Aires, matricula HK4682, vuelo 8250, que cubría la ruta Bogotá – San Andrés . Al momento del aterrizaje fue sacudido por una descendiente y se partió en tres pedazos. La aeronave salió del Aeropuerto el Dorado a las 00:07 AM, cubría la ruta Bogotá – San Andrés y llevaba 131 ocupantes, discriminados así: 121 pasajeros, cuatro menores de edad y 6 tripulantes.

Desde el momento de la emergencia el personal de la Policía Nacional inicio una gran tarea de apoyo y auxilio a las personas que venían en la aeronave, quienes debido al impacto de la aeronave quedaron literalmente esparcidos sobre la cabecera de la pista de aterrizaje.

Los centros asistenciales en que se atiende a las personas lesionadas son: Hospital amor de patria con 89 personas y la clínica Villarreal con 35 personas. Se ha establecido la línea 018000949490 para que los familiares obtengan información sobre sus seres queridos.

Todas las operaciones se encuentran suspendidas sobre el aeropuerto de San Andrés mientras se terminan de realizar las operaciones de ayuda.

Las personas que resultaron ilesas son las siguientes:

Alejandro Colmenares Rua de 18 meses de edad,
Yiseth Rua Rojas de 23 años,
Catherine Rua Rojas de 27 años,
Jacqueline Rua Rojas de 23 años,
María Alejandra Ballesteros 21 años,
Andrés Cagua Calderón de 33 años


La aeronave fue afectada por un rayo cuando aterrizaba aproximadamente a la 1:40 de la madrugada. El aeropuerto cerró las operaciones.


Un avión Boing 737-200 de la aerolínea Aires sufrió un grave accidente cuando aterrizaba a la 1:40 de la madrugada en el aeropuerto Gustavo Rojas Pinilla de San Andrés en medio de una fuerte tormenta, según informó el coronel Gustavo Barrero Barrero, comandante del Grupo Aéreo del Caribe de la Fuerza Aérea Colombiana (FAC).

Las primeras informaciones dan cuenta de que la aeronave, que volaba con 121 pasajeros y seis tripulantes, fue afectada por un potente rayo. El avión está literalmente partido en dos, en la mitad del fuselaje.

La rápida reacción de la tripulación, los Bomberos, la Policía e incluso los taxistas evitó que la aeronave se incendiara. Incluso las azafatas ayudaron a evacuar a los pasajeros.

"La aeronave que cubría el trayecto Bogotá-San Andrés aterrizaba en medio de una intensa tormenta eléctrica, cuando un potente rayo habría ocasionado su descontrol en la cabecera de la pista 06", dijo Barrero.

Los primeros heridos fueron evacuados en ambulancias, carros particulares y taxis hacia el Hospital Departamental Amor de Patria; la Clínica Villareal y a Sanidad Portuaria.

Hasta el momento se conoce sobre el fallecimiento de una mujer, identificada inicialmente como Amar Fernández de Barreto, quien murió cuando era trasladada al centro de atención.

La aeronave estaba al mando del capitán Wilson Gutiérrez, oriundo de Medellín que fue trasladado a la Clínica Villareal con el resto de la tripulación y 32 pasajeros, en tanto al Amor de Patria fueron llevadas unas 70 personas que son atendidas a esta hora.

El propio gobernador de San Andrés, Pedro Gallardo Forbes, se apersonó de la evacuación del personal herido desde el aeropuerto y se trasladó posteriormente al hospital con el secretario de Salud, el médico José Antonio Rodríguez Robles para ayudar durante la emergencia.

El accidente activó al Comité Regional de Prevención y Atención de Desastres (Crepad) cuyos miembros trabajan en todos los frentes para superar la emergencia generada por el accidente.

Gallardo Forbes, informó oficialmente desde el Hospital Amor de Patria de San Andrés, sobre el fallecimiento de una mujer mayor de edad, agregando que hay cinco heridos más de gravedad -incluido un menor edad- ingresados a quirófanos.

"Lamentamos profundamente este accidente, les enviamos nuestras sentimientos de solidaridad a los familiares de los afectados, pero al mismo tiempo damos a gracias a Dios por que las consecuencias pudieron haber sido aun mucho más graves", precisó el gobernador.

Con información de Eduardo Lunazzi
Especial para Eltiempo.com


METAR al momento del accidente

SKSP 161200Z 00000KT 9999 FEW013 SCT080 BKN200 26/24 A2987 RETSRA
SKSP 161100Z 00000KT 9999 FEW013CB SCT080 27/25 A2985 RMK LTNG/CB/E
SKSP 160500Z 07006KT 9999 FEW016 SCT200 29/26 A2990
SKSP 160400Z VRB02KT 9999 BKN016TCU SCT200 29/26 A2991
SKSP 160400Z VRB02KT 9999 BKN016 TCU SCT200 29/26 A2991
SKSP 160300Z 06003KT 9999 FEW016 BKN200 29/26 A2989
SKSP 160200Z 06003KT 9999 FEW016 BKN200 29/26 A2988
SKSP 160100Z 07004KT 9999 FEW018 SCT200 29/25 A2986



Aeropuerto
GUSTAVO ROJAS PINILLA
SAN ANDRES I, COLOMBIA


Location
Latitude: 12.5836 Longitude: -81.7112

Nearby radio navigation aids
SPP SAN ANDRES VOR/DME on field. SPP SAN ANDRES NDB on field.

Runway 06
Latitude: 12.578211
Longitude: -81.72045
Runway true heading: 62.4

Runway 24
Latitude: 12.589056
Longitude: -81.701567

Elevation: 8 ft. 8 ft.
Runway true heading: 242.4

Comentarios

Publicar un comentario

Los comentarios serán moderados antes de su publicación.

Entradas más populares de este blog

EL MODELO DE REASON

CAUSALIDAD DE LOS ACCIDENTES — EL MODELO DE REASON

La aceptación en toda la industria del concepto de accidente de organización fue posible gracias a un sencillo pero gráficamente poderoso modelo elaborado por el Profesor James Reason, que proporcionó un medio para comprender cómo la aviación (o cualquier otro sistema de producción) funciona con éxito o se dirige al fracaso. Con arreglo a este modelo, los accidentes se producen cuando cierto número de factores permiten que ocurran — siendo cada uno de ellos necesario pero en sí no suficiente para quebrar las defensas del sistema. Debido a que los sistemas complejos como la aviación están extremadamente bien defendidos por capas de defensas profundas, las fallas en un punto único rara vez tienen consecuencias en el sistema aeronáutico. Las fallas de equipo o los errores operacionales nunca son la causa del quiebre de las defensas de seguridad operacional, sino más bien los elementos activadores. Los quiebres de…

La incursión en Barcelona - Una aproximación desde la Seguridad Operacional

Incursión en la pista. Todo suceso en un aeródromo que suponga la presencia incorrecta de una aeronave, vehículo o persona en la zona protegida de una superficie designada para el aterrizaje o despegue de una aeronave (DOC 9870 Manual sobre la prevención de incursiones en la pista)

Según los datos publicados en The Aviation Herald la distancia entre el A340 de AR y el B767 de  UTAir era de 1,7 millas. La siguiente imagen muestra la distancia entre ambas. En la calle M cruzando la pista 02, en base a esos datos publicados la situación quedaría así:




Cabe aclarar algo sobre el video que se ha viralizado en las redes. Las distancias no son lo que parece, el zoom y la posición del que filma dan la sensación de cercanía que no es tal. La posición del A340 que se encuentra en primer plano y el avión aproximando en segundo plano, da espectacularidad y parece que están a punto de impactar, en mi opinión, no es así, teniendo en cuenta los datos de Aviation Herald.
Este comentario no le quita gr…

COMPOSICIÓN DE LAS CENIZAS VOLCÁNICAS Y DE LOS GASES ASOCIADOS

Volcanes activos en la zona cordillerana

COMPOSICIÓN DE LAS CENIZAS VOLCÁNICAS Y DE LOS GASES ASOCIADOS

Esencialmente las nubes de cenizas volcánicas están constituidas por partículas finas de roca pulverizada, cuya composición corresponde a la del magma en el interior de los volcanes. Por consiguiente, la composición de las nubes de cenizas volcánicas varía de un volcán a otro. No obstante, en términos generales, están predominantemente constituidas por sílice (> 50%) junto con cantidades más pequeñas de óxidos de aluminio, hierro, calcio y sodio (Tabla 2-1).
El sílice es una forma de silicato vítreo y examinado por exploración microscópica de electrones se parece a cascos de vidrio de bordes agudos.
Los materiales de silicato de vidrio son muy duros. Ordinariamente de una dureza de nivel 5 ó 6 en la escala de Mohs (La escala Mohs recibe su nombre al minerólogo alemán Friedrich Mohs y se basa en una escala de dureza del talco qu…